createdAt,value
2019-03-03T00:00:39.834Z,9.90
2019-03-03T00:03:08.248Z,9.90
2019-03-03T00:05:36.632Z,9.90
2019-03-03T00:08:05.056Z,9.90
2019-03-03T00:10:33.462Z,10.00
2019-03-03T00:13:01.963Z,10.00
2019-03-03T00:15:30.366Z,10.00
2019-03-03T00:17:58.863Z,10.00
2019-03-03T00:20:27.251Z,10.00
2019-03-03T00:22:55.655Z,10.00
2019-03-03T00:25:24.060Z,10.00
2019-03-03T00:27:52.462Z,10.00
2019-03-03T00:30:21.554Z,9.90
2019-03-03T00:32:49.952Z,9.90
2019-03-03T00:35:18.446Z,9.90
2019-03-03T00:38:04.785Z,10.00
2019-03-03T00:40:46.795Z,10.10
2019-03-03T00:43:19.342Z,10.10
2019-03-03T00:45:55.184Z,10.20
2019-03-03T00:48:40.518Z,10.30
2019-03-03T00:51:19.767Z,10.30
2019-03-03T00:54:05.783Z,10.40
2019-03-03T00:56:35.823Z,10.40
2019-03-03T00:59:17.808Z,10.40
2019-03-03T01:04:40.428Z,10.40
2019-03-03T01:07:10.521Z,10.50
2019-03-03T01:09:43.292Z,10.50
2019-03-03T01:12:16.093Z,10.50
2019-03-03T01:15:00.850Z,10.60
2019-03-03T01:17:33.710Z,10.50
2019-03-03T01:20:06.493Z,10.60
2019-03-03T01:22:52.837Z,10.50
2019-03-03T01:25:21.492Z,10.50
2019-03-03T01:27:49.874Z,10.50
2019-03-03T01:30:18.362Z,10.50
2019-03-03T01:32:46.773Z,10.50
2019-03-03T01:35:15.260Z,10.50
2019-03-03T01:37:43.653Z,10.30
2019-03-03T01:40:12.500Z,10.30
2019-03-03T01:42:40.964Z,10.20
2019-03-03T01:45:13.922Z,10.20
2019-03-03T01:47:42.404Z,10.20
2019-03-03T01:50:12.052Z,10.30
2019-03-03T01:52:40.440Z,10.20
2019-03-03T01:55:10.584Z,10.20
2019-03-03T01:57:39.041Z,10.20
2019-03-03T02:00:16.388Z,10.20
2019-03-03T02:02:44.791Z,10.20
2019-03-03T02:05:13.273Z,10.20
2019-03-03T02:07:41.666Z,10.30
2019-03-03T02:10:10.155Z,10.30
2019-03-03T02:12:38.609Z,10.30
2019-03-03T02:15:08.140Z,10.30
2019-03-03T02:17:36.542Z,10.30
2019-03-03T02:20:07.793Z,10.40
2019-03-03T02:22:36.187Z,10.40
2019-03-03T02:25:07.429Z,10.40
2019-03-03T02:27:35.908Z,10.30
2019-03-03T02:30:10.329Z,10.30
2019-03-03T02:32:38.724Z,10.20
2019-03-03T02:35:07.417Z,10.30
2019-03-03T02:37:35.896Z,10.30
2019-03-03T02:40:07.021Z,10.30
2019-03-03T02:42:35.571Z,10.30
2019-03-03T02:45:05.909Z,10.30
2019-03-03T02:47:34.302Z,10.20
2019-03-03T02:50:02.716Z,10.20
2019-03-03T02:52:31.119Z,10.10
2019-03-03T02:54:59.529Z,10.10
2019-03-03T02:57:28.773Z,10.10
2019-03-03T02:59:57.194Z,10.10
2019-03-03T03:02:29.653Z,10.10
2019-03-03T03:04:58.090Z,10.10
2019-03-03T03:07:30.895Z,10.10
2019-03-03T03:10:06.550Z,10.10
2019-03-03T03:12:52.925Z,10.10
2019-03-03T03:15:40.985Z,10.10
2019-03-03T03:18:13.692Z,10.10
2019-03-03T03:20:43.769Z,10.10
2019-03-03T03:23:16.256Z,10.00
2019-03-03T03:25:49.042Z,10.00
2019-03-03T03:28:19.257Z,9.90
2019-03-03T03:33:30.938Z,10.00
2019-03-03T03:36:00.961Z,9.90
2019-03-03T03:38:40.022Z,10.00
2019-03-03T03:41:24.851Z,10.00
2019-03-03T03:44:03.853Z,10.00
2019-03-03T03:46:36.572Z,9.90
2019-03-03T03:49:06.617Z,9.90
2019-03-03T03:51:36.660Z,9.90
2019-03-03T03:54:23.163Z,9.90
2019-03-03T03:56:53.212Z,9.80
2019-03-03T03:59:23.325Z,9.80
2019-03-03T04:02:09.969Z,9.70
2019-03-03T04:04:40.010Z,9.60
2019-03-03T04:07:10.134Z,9.40
2019-03-03T04:09:40.153Z,9.20
2019-03-03T04:12:12.712Z,9.10
2019-03-03T04:14:45.257Z,9.10
2019-03-03T04:17:18.176Z,9.10
2019-03-03T04:19:51.065Z,9.00
2019-03-03T04:22:35.876Z,8.90
2019-03-03T04:25:09.318Z,8.90
2019-03-03T04:27:42.110Z,8.70
2019-03-03T04:30:15.058Z,8.60
2019-03-03T04:32:45.098Z,8.60
2019-03-03T04:35:15.132Z,8.70
2019-03-03T04:38:01.436Z,8.70
2019-03-03T04:40:47.702Z,8.70
2019-03-03T04:43:23.743Z,8.60
2019-03-03T04:45:53.766Z,8.60
2019-03-03T04:48:32.371Z,8.60
2019-03-03T04:51:08.274Z,8.60
2019-03-03T04:53:47.176Z,8.60
2019-03-03T04:56:26.290Z,8.50
2019-03-03T04:59:04.764Z,8.40
2019-03-03T05:01:40.748Z,8.40
2019-03-03T05:04:13.436Z,8.30
2019-03-03T05:06:43.474Z,8.30
2019-03-03T05:09:16.201Z,8.20
2019-03-03T05:12:19.007Z,8.10
2019-03-03T05:14:47.421Z,8.10
2019-03-03T05:17:17.462Z,8.10
2019-03-03T05:19:47.498Z,8.00
2019-03-03T05:22:15.915Z,8.00
2019-03-03T05:24:44.383Z,8.00
2019-03-03T05:27:12.775Z,8.00
2019-03-03T05:29:41.174Z,8.10
2019-03-03T05:32:09.573Z,8.10
2019-03-03T05:34:37.974Z,8.00
2019-03-03T05:37:06.367Z,8.00
2019-03-03T05:39:34.781Z,7.90
2019-03-03T05:42:03.185Z,7.80
2019-03-03T05:44:31.582Z,7.70
2019-03-03T05:46:59.984Z,7.60
2019-03-03T05:49:28.384Z,7.50
2019-03-03T05:51:56.792Z,7.40
2019-03-03T05:54:25.556Z,7.30
2019-03-03T05:56:53.965Z,7.20
2019-03-03T05:59:22.369Z,7.10
2019-03-03T06:01:50.761Z,7.10
2019-03-03T06:04:19.180Z,7.10
2019-03-03T06:06:47.584Z,7.00
2019-03-03T06:09:15.977Z,6.90
2019-03-03T06:11:44.380Z,6.90
2019-03-03T06:14:12.781Z,6.90
2019-03-03T06:16:41.183Z,6.90
2019-03-03T06:19:09.579Z,6.80
2019-03-03T06:21:37.983Z,6.80
2019-03-03T06:24:06.404Z,6.80
2019-03-03T06:26:34.816Z,6.80
2019-03-03T06:29:03.209Z,6.80
2019-03-03T06:31:31.608Z,6.90
2019-03-03T06:34:00.011Z,7.10
2019-03-03T06:36:28.411Z,7.30
2019-03-03T06:38:56.824Z,7.30
2019-03-03T06:41:25.215Z,7.30
2019-03-03T06:43:53.697Z,7.40
2019-03-03T06:46:22.091Z,7.50
2019-03-03T06:48:50.518Z,7.60
2019-03-03T06:51:18.915Z,7.70
2019-03-03T06:53:47.318Z,7.80
2019-03-03T06:56:15.719Z,8.00
2019-03-03T06:58:44.131Z,8.10
2019-03-03T07:01:12.526Z,8.10
2019-03-03T07:03:40.921Z,8.10
2019-03-03T07:06:09.471Z,8.00
2019-03-03T07:08:37.856Z,8.20
2019-03-03T07:11:06.271Z,8.30
2019-03-03T07:13:34.662Z,8.30
2019-03-03T07:16:03.075Z,8.40
2019-03-03T07:18:31.485Z,8.50
2019-03-03T07:20:59.897Z,8.50
2019-03-03T07:23:28.280Z,8.50
2019-03-03T07:25:56.669Z,8.60
2019-03-03T07:28:25.066Z,8.60
2019-03-03T07:30:53.483Z,8.80
2019-03-03T07:33:26.280Z,8.90
2019-03-03T07:35:54.696Z,9.10
2019-03-03T07:38:23.091Z,9.30
2019-03-03T07:40:51.498Z,9.40
2019-03-03T07:43:19.904Z,9.40
2019-03-03T07:45:48.311Z,9.50
2019-03-03T07:48:16.713Z,9.50
2019-03-03T07:50:45.123Z,9.60
2019-03-03T07:53:13.515Z,9.70
2019-03-03T07:55:41.924Z,9.90
2019-03-03T07:58:10.350Z,10.00
2019-03-03T08:00:38.789Z,10.20
2019-03-03T08:03:07.193Z,10.40
2019-03-03T08:05:35.733Z,10.60
2019-03-03T08:08:04.318Z,10.80
2019-03-03T08:10:32.743Z,10.90
2019-03-03T08:13:08.914Z,11.10
2019-03-03T08:15:31.261Z,11.30
2019-03-03T08:17:59.671Z,11.40
2019-03-03T08:20:28.075Z,11.50
2019-03-03T08:22:56.476Z,11.60
2019-03-03T08:25:24.906Z,11.80
2019-03-03T08:27:53.307Z,12.00
2019-03-03T08:30:21.722Z,12.20
2019-03-03T08:32:50.137Z,12.30
2019-03-03T08:35:23.463Z,12.40
2019-03-03T08:37:51.853Z,12.50
2019-03-03T08:40:20.254Z,12.40
2019-03-03T08:43:04.101Z,12.50
2019-03-03T08:45:40.427Z,12.30
2019-03-03T08:48:10.456Z,12.30
2019-03-03T08:50:52.441Z,12.30
2019-03-03T08:53:34.726Z,12.30
2019-03-03T08:56:07.888Z,12.30
2019-03-03T08:58:43.372Z,12.10
2019-03-03T09:01:22.316Z,12.10
2019-03-03T09:04:04.609Z,12.10
2019-03-03T09:06:37.225Z,12.10
2019-03-03T09:09:08.806Z,12.00
2019-03-03T09:11:44.902Z,12.20
2019-03-03T09:14:20.936Z,12.20
2019-03-03T09:19:45.211Z,12.30
2019-03-03T09:25:08.392Z,12.50
2019-03-03T09:27:41.262Z,12.50
2019-03-03T09:30:29.971Z,12.70
2019-03-03T09:33:05.834Z,12.60
2019-03-03T09:35:38.855Z,12.60
2019-03-03T09:38:08.896Z,12.60
2019-03-03T09:40:41.837Z,12.60
2019-03-03T09:43:20.898Z,12.70
2019-03-03T09:46:02.949Z,12.90
2019-03-03T09:48:51.257Z,13.00
2019-03-03T09:51:37.549Z,12.80
2019-03-03T09:54:23.990Z,12.70
2019-03-03T09:57:10.507Z,12.70
2019-03-03T09:59:49.749Z,12.70
2019-03-03T10:02:22.842Z,12.70
2019-03-03T10:04:52.880Z,12.60
2019-03-03T10:07:39.403Z,12.70
2019-03-03T10:10:14.236Z,12.70
2019-03-03T10:12:44.362Z,12.70
2019-03-03T10:15:31.189Z,12.50
2019-03-03T10:18:03.950Z,12.70
2019-03-03T10:20:33.983Z,12.70
2019-03-03T10:23:06.729Z,12.80
2019-03-03T10:25:53.243Z,12.90
2019-03-03T10:28:39.865Z,12.90
2019-03-03T10:31:26.627Z,13.10
2019-03-03T10:34:02.566Z,13.10
2019-03-03T10:36:50.993Z,13.10
2019-03-03T10:39:21.043Z,13.00
2019-03-03T10:41:54.112Z,13.10
2019-03-03T10:44:24.151Z,12.90
2019-03-03T10:46:59.879Z,12.70
2019-03-03T10:49:38.670Z,12.90
2019-03-03T10:52:14.498Z,12.70
2019-03-03T10:54:50.315Z,12.70
2019-03-03T10:57:23.423Z,12.70
2019-03-03T10:59:56.434Z,12.60
2019-03-03T11:02:44.783Z,12.60
2019-03-03T11:05:17.532Z,12.80
2019-03-03T11:07:53.227Z,13.00
2019-03-03T11:10:25.663Z,13.20
2019-03-03T11:15:40.281Z,13.40
2019-03-03T11:18:16.385Z,13.60
2019-03-03T11:20:46.478Z,13.60
2019-03-03T11:23:34.617Z,13.50
2019-03-03T11:26:10.595Z,13.60
2019-03-03T11:28:40.640Z,13.70
2019-03-03T11:31:24.669Z,13.70
2019-03-03T11:33:54.731Z,13.60
2019-03-03T11:36:33.640Z,13.60
2019-03-03T11:39:06.282Z,13.50
2019-03-03T11:41:45.171Z,13.40
2019-03-03T11:44:31.463Z,13.50
2019-03-03T11:47:07.475Z,13.50
2019-03-03T11:49:37.527Z,13.40
2019-03-03T11:52:11.102Z,13.40
2019-03-03T11:54:43.881Z,13.40
2019-03-03T11:57:16.621Z,13.50
2019-03-03T11:59:52.730Z,13.60
2019-03-03T12:02:28.480Z,13.70
2019-03-03T12:05:04.052Z,13.90
2019-03-03T12:07:44.471Z,14.10
2019-03-03T12:10:17.733Z,14.50
2019-03-03T12:12:53.476Z,14.40
2019-03-03T12:15:26.521Z,14.60
2019-03-03T12:17:59.687Z,14.30
2019-03-03T12:20:29.801Z,14.40
2019-03-03T12:22:59.859Z,14.50
2019-03-03T12:25:29.908Z,14.60
2019-03-03T12:28:03.597Z,14.60
2019-03-03T12:30:51.565Z,14.60
2019-03-03T12:33:28.333Z,14.40
2019-03-03T12:36:05.026Z,14.40
2019-03-03T12:38:35.280Z,14.30
2019-03-03T12:41:13.952Z,14.30
2019-03-03T12:43:52.849Z,14.20
2019-03-03T12:46:29.578Z,14.30
2019-03-03T12:49:05.439Z,14.30
2019-03-03T12:51:51.751Z,14.30
2019-03-03T12:54:21.790Z,14.60
2019-03-03T12:57:10.102Z,14.80
2019-03-03T12:59:42.843Z,15.00
2019-03-03T13:02:12.878Z,15.00
2019-03-03T13:04:45.596Z,15.10
2019-03-03T13:07:30.792Z,14.90
2019-03-03T13:10:17.258Z,15.10
2019-03-03T13:12:50.331Z,15.10
2019-03-03T13:15:20.393Z,15.20
2019-03-03T13:17:50.432Z,15.00
2019-03-03T13:20:26.578Z,14.80
2019-03-03T13:23:15.689Z,14.70
2019-03-03T13:25:48.677Z,14.80
2019-03-03T13:28:18.767Z,14.90
2019-03-03T13:30:51.577Z,14.80
2019-03-03T13:33:37.859Z,14.80
2019-03-03T13:36:17.319Z,14.80
2019-03-03T13:39:03.685Z,14.60
2019-03-03T13:41:39.798Z,14.50
2019-03-03T13:44:08.195Z,14.30
2019-03-03T13:46:36.621Z,14.30
2019-03-03T13:49:05.039Z,14.30
2019-03-03T13:51:33.498Z,14.30
2019-03-03T13:54:01.942Z,14.40
2019-03-03T13:56:30.392Z,14.40
2019-03-03T13:58:58.884Z,14.40
2019-03-03T14:01:27.334Z,14.30
2019-03-03T14:03:55.739Z,14.30
2019-03-03T14:06:24.196Z,14.20
2019-03-03T14:08:52.609Z,14.10
2019-03-03T14:11:30.582Z,14.20
2019-03-03T14:13:59.060Z,14.20
2019-03-03T14:16:27.449Z,14.30
2019-03-03T14:18:55.839Z,14.40
2019-03-03T14:21:24.339Z,14.50
2019-03-03T14:23:52.742Z,14.50
2019-03-03T14:26:21.236Z,14.40
2019-03-03T14:28:49.669Z,14.40
2019-03-03T14:31:18.092Z,14.40
2019-03-03T14:33:46.483Z,14.40
2019-03-03T14:36:14.963Z,14.40
2019-03-03T14:38:43.373Z,14.50
2019-03-03T14:41:11.779Z,14.60
2019-03-03T14:43:40.182Z,14.80
2019-03-03T14:46:08.670Z,14.90
2019-03-03T14:48:37.146Z,14.80
2019-03-03T14:51:05.708Z,14.60
2019-03-03T14:53:34.097Z,14.50
2019-03-03T14:56:02.499Z,14.60
2019-03-03T14:58:30.904Z,14.70
2019-03-03T15:00:59.302Z,14.80
2019-03-03T15:03:27.707Z,14.90
2019-03-03T15:05:56.124Z,15.10
2019-03-03T15:08:24.522Z,15.20
2019-03-03T15:10:53.013Z,15.30
2019-03-03T15:13:21.425Z,15.40
2019-03-03T15:15:50.407Z,15.30
2019-03-03T15:18:18.888Z,15.20
2019-03-03T15:20:47.390Z,15.10
2019-03-03T15:23:15.757Z,15.00
2019-03-03T15:25:44.211Z,14.90
2019-03-03T15:28:12.610Z,14.80
2019-03-03T15:30:41.022Z,14.60
2019-03-03T15:33:09.487Z,14.50
2019-03-03T15:35:37.918Z,14.40
2019-03-03T15:38:06.390Z,14.40
2019-03-03T15:40:34.885Z,14.30
2019-03-03T15:43:03.295Z,14.30
2019-03-03T15:45:31.954Z,14.30
2019-03-03T15:48:00.373Z,14.10
2019-03-03T15:50:28.779Z,14.00
2019-03-03T15:52:57.262Z,14.10
2019-03-03T15:55:28.760Z,14.10
2019-03-03T15:57:57.150Z,14.10
2019-03-03T16:00:33.685Z,14.10
2019-03-03T16:03:02.079Z,14.10
2019-03-03T16:05:30.549Z,14.10
2019-03-03T16:07:58.953Z,14.00
2019-03-03T16:10:27.866Z,14.00
2019-03-03T16:12:56.276Z,14.10
2019-03-03T16:15:24.812Z,14.10
2019-03-03T16:17:53.286Z,14.00
2019-03-03T16:20:24.905Z,14.00
2019-03-03T16:22:53.434Z,13.90
2019-03-03T16:25:23.849Z,13.80
2019-03-03T16:27:52.330Z,13.70
2019-03-03T16:30:24.499Z,13.70
2019-03-03T16:32:53.043Z,13.60
2019-03-03T16:35:21.525Z,13.60
2019-03-03T16:37:49.931Z,13.60
2019-03-03T16:40:20.939Z,13.50
2019-03-03T16:42:49.344Z,13.60
2019-03-03T16:45:17.882Z,13.60
2019-03-03T16:47:46.273Z,13.60
2019-03-03T16:50:19.730Z,13.50
2019-03-03T16:52:48.383Z,13.60
2019-03-03T16:55:19.096Z,13.60
2019-03-03T16:57:47.582Z,13.60
2019-03-03T17:00:26.716Z,13.60
2019-03-03T17:02:55.131Z,13.60
2019-03-03T17:05:25.441Z,13.50
2019-03-03T17:07:53.857Z,13.50
2019-03-03T17:10:22.246Z,13.50
2019-03-03T17:12:50.943Z,13.40
2019-03-03T17:15:27.041Z,13.40
2019-03-03T17:17:55.455Z,13.40
2019-03-03T17:20:23.873Z,13.30
2019-03-03T17:22:52.360Z,13.30
2019-03-03T17:25:28.158Z,13.30
2019-03-03T17:27:56.572Z,13.30
2019-03-03T17:30:26.017Z,13.20
2019-03-03T17:32:54.500Z,13.20
2019-03-03T17:35:23.161Z,13.10
2019-03-03T17:37:51.629Z,13.10
2019-03-03T17:40:21.672Z,13.00
2019-03-03T17:42:50.233Z,12.90
2019-03-03T17:45:23.367Z,12.90
2019-03-03T17:47:52.323Z,12.90
2019-03-03T17:50:25.608Z,12.80
2019-03-03T17:52:54.026Z,12.70
2019-03-03T17:55:22.479Z,12.60
2019-03-03T17:57:50.954Z,12.60
2019-03-03T18:00:26.819Z,12.60
2019-03-03T18:02:55.300Z,12.50
2019-03-03T18:05:23.711Z,12.50
2019-03-03T18:07:52.343Z,12.50
2019-03-03T18:10:21.132Z,12.40
2019-03-03T18:12:49.616Z,12.40
2019-03-03T18:15:18.321Z,12.30
2019-03-03T18:17:46.767Z,12.20
2019-03-03T18:20:17.369Z,12.10
2019-03-03T18:22:45.777Z,12.10
2019-03-03T18:25:16.608Z,12.00
2019-03-03T18:27:45.190Z,12.00
2019-03-03T18:30:18.621Z,12.00
2019-03-03T18:32:47.103Z,12.00
2019-03-03T18:35:15.656Z,11.90
2019-03-03T18:37:45.211Z,11.90
2019-03-03T18:40:16.718Z,11.90
2019-03-03T18:42:45.386Z,11.90
2019-03-03T18:45:34.650Z,11.80
2019-03-03T18:48:03.744Z,11.80
2019-03-03T18:50:32.230Z,11.70
2019-03-03T18:53:00.669Z,11.70
2019-03-03T18:55:29.058Z,11.50
2019-03-03T18:57:57.474Z,11.30
2019-03-03T19:00:49.417Z,11.20
2019-03-03T19:03:17.818Z,11.00
2019-03-03T19:05:55.193Z,11.00
2019-03-03T19:08:16.537Z,10.90
2019-03-03T19:10:44.927Z,10.90
2019-03-03T19:13:13.340Z,11.00
2019-03-03T19:15:41.743Z,11.00
2019-03-03T19:18:10.156Z,11.00
2019-03-03T19:20:38.625Z,11.00
2019-03-03T19:23:07.039Z,11.00
2019-03-03T19:25:35.449Z,11.00
2019-03-03T19:28:03.890Z,11.10
2019-03-03T19:30:32.300Z,11.10
2019-03-03T19:33:16.078Z,11.00
2019-03-03T19:35:44.560Z,11.00
2019-03-03T19:38:12.978Z,11.00
2019-03-03T19:40:41.456Z,11.00
2019-03-03T19:43:09.937Z,10.90
2019-03-03T19:45:40.643Z,10.90
2019-03-03T19:48:09.522Z,10.80
2019-03-03T19:50:37.924Z,10.80
2019-03-03T19:53:06.500Z,10.80
2019-03-03T19:55:34.958Z,10.70
2019-03-03T19:58:03.458Z,10.70
2019-03-03T20:00:40.099Z,10.70
2019-03-03T20:03:08.835Z,10.70
2019-03-03T20:05:37.321Z,10.60
2019-03-03T20:08:06.248Z,10.50
2019-03-03T20:10:34.890Z,10.30
2019-03-03T20:13:03.365Z,10.30
2019-03-03T20:15:31.848Z,10.30
2019-03-03T20:18:00.267Z,10.40
2019-03-03T20:20:28.738Z,10.40
2019-03-03T20:22:57.125Z,10.40
2019-03-03T20:25:25.875Z,10.40
2019-03-03T20:27:54.335Z,10.40
2019-03-03T20:30:23.899Z,10.50
2019-03-03T20:32:52.452Z,10.50
2019-03-03T20:35:20.857Z,10.50
2019-03-03T20:37:49.266Z,10.50
2019-03-03T20:40:19.203Z,10.60
2019-03-03T20:42:47.685Z,10.70
2019-03-03T20:45:18.926Z,10.60
2019-03-03T20:47:47.319Z,10.60
2019-03-03T20:50:17.975Z,10.60
2019-03-03T20:52:46.644Z,10.60
2019-03-03T20:55:20.473Z,10.70
2019-03-03T20:57:48.868Z,10.70
2019-03-03T21:00:27.591Z,10.60
2019-03-03T21:02:56.310Z,10.60
2019-03-03T21:05:25.012Z,10.60
2019-03-03T21:07:53.668Z,10.60
2019-03-03T21:10:23.933Z,10.60
2019-03-03T21:12:52.416Z,10.60
2019-03-03T21:15:20.836Z,10.50
2019-03-03T21:17:49.245Z,10.40
2019-03-03T21:20:19.579Z,10.30
2019-03-03T21:22:48.497Z,10.30
2019-03-03T21:25:17.930Z,10.30
2019-03-03T21:27:46.464Z,10.30
2019-03-03T21:30:19.548Z,10.30
2019-03-03T21:32:47.935Z,10.30
2019-03-03T21:35:16.497Z,10.20
2019-03-03T21:37:45.049Z,10.10
2019-03-03T21:40:19.477Z,10.10
2019-03-03T21:42:47.885Z,10.00
2019-03-03T21:45:20.491Z,9.90
2019-03-03T21:47:48.901Z,9.80
2019-03-03T21:50:22.276Z,9.70
2019-03-03T21:52:50.927Z,9.70
2019-03-03T21:55:19.336Z,9.60
2019-03-03T21:57:47.723Z,9.60
2019-03-03T22:00:27.277Z,9.60
2019-03-03T22:02:55.752Z,9.50
2019-03-03T22:05:24.168Z,9.50
2019-03-03T22:07:52.575Z,9.60
2019-03-03T22:10:22.633Z,9.60
2019-03-03T22:12:51.019Z,9.40
2019-03-03T22:15:19.418Z,9.50
2019-03-03T22:17:47.820Z,9.60
2019-03-03T22:20:16.209Z,9.70
2019-03-03T22:22:44.616Z,9.70
2019-03-03T22:25:13.157Z,9.80
2019-03-03T22:27:41.562Z,9.80
2019-03-03T22:30:14.961Z,9.90
2019-03-03T22:32:43.374Z,10.00
2019-03-03T22:35:11.786Z,10.00
2019-03-03T22:37:40.191Z,10.10
2019-03-03T22:40:16.531Z,10.10
2019-03-03T22:42:44.927Z,10.00
2019-03-03T22:45:15.106Z,10.10
2019-03-03T22:47:43.521Z,10.20
2019-03-03T22:50:19.857Z,10.30
2019-03-03T22:52:48.240Z,10.30
2019-03-03T22:55:18.400Z,10.30
2019-03-03T22:57:46.875Z,10.30
2019-03-03T23:00:45.758Z,10.30
2019-03-03T23:03:25.917Z,10.30
2019-03-03T23:06:03.129Z,10.30
2019-03-03T23:09:01.887Z,10.20
2019-03-03T23:11:39.600Z,10.20
2019-03-03T23:14:17.305Z,10.10
2019-03-03T23:16:48.791Z,9.90
2019-03-03T23:19:26.254Z,9.90
2019-03-03T23:22:21.247Z,9.80
2019-03-03T23:25:04.442Z,9.70
2019-03-03T23:27:32.840Z,9.70
2019-03-03T23:30:01.235Z,9.70
2019-03-03T23:32:29.655Z,9.60
2019-03-03T23:34:58.048Z,9.50
2019-03-03T23:37:26.453Z,9.40
2019-03-03T23:39:54.913Z,9.30
2019-03-03T23:42:23.327Z,9.30
2019-03-03T23:44:51.726Z,9.20
2019-03-03T23:47:20.139Z,9.20
2019-03-03T23:49:48.539Z,9.10
2019-03-03T23:52:16.947Z,9.00
2019-03-03T23:54:45.334Z,8.90
2019-03-03T23:57:13.734Z,8.90
2019-03-03T23:59:42.148Z,8.70
